Time;durP1;ratioP1;P1;durP2;ratioP2;P2;SDS_P1;SDS_P2;PMS_P1;PMS_P2;Temp;Humidity;BMP_temperature;BMP_pressure;BME280_temperature;BME280_humidity;BME280_pressure;Samples;Min_cycle;Max_cycle;Signal;HPM_P1;HPM_P2
2024/01/28 00:00:46;;;;;;;14.43;5.03;;;;;;;;;;5076310;28;20502;-67
2024/01/28 00:03:12;;;;;;;19.83;7.77;;;;;;;;;;5075698;28;20573;-67
2024/01/28 00:05:38;;;;;;;22.67;6.77;;;;;;;;;;5058094;28;20601;-67
2024/01/28 00:08:05;;;;;;;16.53;6.13;;;;;;;;;;5057974;28;20424;-66
2024/01/28 00:10:31;;;;;;;23.57;7.33;;;;;;;;;;5075999;28;20182;-65
2024/01/28 00:12:57;;;;;;;17.13;6.03;;;;;;;;;;5075897;28;20194;-65
2024/01/28 00:15:23;;;;;;;15.53;5.70;;;;;;;;;;5058433;28;20220;-66
2024/01/28 00:17:50;;;;;;;13.07;5.27;;;;;;;;;;5058600;28;20412;-65
2024/01/28 00:20:16;;;;;;;17.40;5.47;;;;;;;;;;5058520;28;20815;-68
2024/01/28 00:22:42;;;;;;;18.10;7.20;;;;;;;;;;5075735;28;20714;-65
2024/01/28 00:25:08;;;;;;;15.87;5.80;;;;;;;;;;5058017;28;20424;-67
2024/01/28 00:27:35;;;;;;;15.97;5.17;;;;;;;;;;5076019;28;20736;-67
2024/01/28 00:30:01;;;;;;;7.60;4.20;;;;;;;;;;5075600;28;20446;-67
2024/01/28 00:32:27;;;;;;;11.23;4.80;;;;;;;;;;5075453;28;20194;-66
2024/01/28 00:34:53;;;;;;;7.97;4.10;;;;;;;;;;5075592;28;20177;-65
2024/01/28 00:37:19;;;;;;;23.37;9.17;;;;;;;;;;5057597;28;20178;-65
2024/01/28 00:39:44;;;;;;;21.70;7.97;;;;;;;;;;5075562;28;20643;-66
2024/01/28 00:42:10;;;;;;;18.90;6.10;;;;;;;;;;5077046;28;20238;-65
2024/01/28 00:44:36;;;;;;;11.50;4.30;;;;;;;;;;5058811;28;20647;-66
2024/01/28 00:47:03;;;;;;;12.97;6.03;;;;;;;;;;5057675;28;20424;-65
2024/01/28 00:49:31;;;;;;;14.37;5.73;;;;;;;;;;5075743;28;20174;-64
2024/01/28 00:51:57;;;;;;;14.40;5.20;;;;;;;;;;5076081;28;20428;-66
2024/01/28 00:54:24;;;;;;;12.87;5.07;;;;;;;;;;5075519;28;20174;-66
2024/01/28 00:56:52;;;;;;;17.50;5.67;;;;;;;;;;5075658;28;20188;-65
2024/01/28 00:59:18;;;;;;;11.77;5.13;;;;;;;;;;5075033;28;20185;-67
2024/01/28 01:01:43;;;;;;;12.37;4.53;;;;;;;;;;5074022;28;20664;-65
2024/01/28 01:04:09;;;;;;;7.43;4.43;;;;;;;;;;5074737;28;20224;-65
2024/01/28 01:06:37;;;;;;;14.40;6.43;;;;;;;;;;5074602;28;20178;-66
2024/01/28 01:09:03;;;;;;;26.63;9.27;;;;;;;;;;5057120;28;20205;-65
2024/01/28 01:11:29;;;;;;;16.87;7.67;;;;;;;;;;5074629;28;20189;-65
2024/01/28 01:13:55;;;;;;;39.80;18.47;;;;;;;;;;5056668;28;20416;-67
2024/01/28 01:16:21;;;;;;;8.53;4.07;;;;;;;;;;5057330;28;20186;-67
2024/01/28 01:18:47;;;;;;;17.93;4.87;;;;;;;;;;5056651;28;20178;-67
2024/01/28 01:21:13;;;;;;;11.07;4.47;;;;;;;;;;5074329;28;20575;-67
2024/01/28 01:23:39;;;;;;;15.10;5.83;;;;;;;;;;5074331;28;20292;-67
2024/01/28 01:26:05;;;;;;;13.67;5.23;;;;;;;;;;5056450;28;20181;-68
2024/01/28 01:28:34;;;;;;;16.83;6.33;;;;;;;;;;5056361;28;20268;-67
2024/01/28 01:31:00;;;;;;;14.60;6.47;;;;;;;;;;5074412;28;20200;-67
2024/01/28 01:33:26;;;;;;;7.60;4.63;;;;;;;;;;5074497;28;20181;-66
2024/01/28 01:35:52;;;;;;;16.67;4.73;;;;;;;;;;5056299;28;20677;-65
2024/01/28 01:38:18;;;;;;;16.93;5.60;;;;;;;;;;5074163;28;20555;-66
2024/01/28 01:40:44;;;;;;;16.30;5.20;;;;;;;;;;5074662;28;20636;-66
2024/01/28 01:43:10;;;;;;;18.80;6.03;;;;;;;;;;5055955;28;20243;-66
2024/01/28 01:45:40;;;;;;;16.93;6.67;;;;;;;;;;5074040;28;20192;-67
2024/01/28 01:48:13;;;;;;;12.87;4.97;;;;;;;;;;5074337;28;20208;-65
2024/01/28 01:50:40;;;;;;;13.20;4.77;;;;;;;;;;5056004;28;20185;-66
2024/01/28 01:53:06;;;;;;;19.37;5.43;;;;;;;;;;5074013;28;20182;-66
2024/01/28 01:55:36;;;;;;;11.37;4.27;;;;;;;;;;5056246;28;20440;-65
2024/01/28 01:58:03;;;;;;;12.40;4.73;;;;;;;;;;5056413;28;20185;-65
2024/01/28 02:00:29;;;;;;;10.80;4.20;;;;;;;;;;5073998;28;20771;-66
2024/01/28 02:02:55;;;;;;;13.70;4.17;;;;;;;;;;5055954;28;20213;-66
2024/01/28 02:05:21;;;;;;;13.77;4.73;;;;;;;;;;5074664;28;20182;-66
2024/01/28 02:07:47;;;;;;;12.77;3.93;;;;;;;;;;5074032;28;20174;-65
2024/01/28 02:10:14;;;;;;;12.90;4.20;;;;;;;;;;5073960;28;20232;-66
2024/01/28 02:12:42;;;;;;;8.00;3.60;;;;;;;;;;5056383;28;20261;-66
2024/01/28 02:15:12;;;;;;;7.97;3.60;;;;;;;;;;5074528;28;20982;-65
2024/01/28 02:17:38;;;;;;;11.37;4.20;;;;;;;;;;5074743;28;20632;-65
2024/01/28 02:20:05;;;;;;;9.50;3.90;;;;;;;;;;5056304;28;20174;-64
2024/01/28 02:22:31;;;;;;;10.50;3.70;;;;;;;;;;5073957;28;20627;-66
2024/01/28 02:24:57;;;;;;;13.53;4.20;;;;;;;;;;5055763;28;20484;-65
2024/01/28 02:27:23;;;;;;;11.73;4.43;;;;;;;;;;5073994;28;20197;-66
2024/01/28 02:29:49;;;;;;;11.00;4.43;;;;;;;;;;5073635;28;20411;-66
2024/01/28 02:32:16;;;;;;;14.67;4.30;;;;;;;;;;5073634;28;20217;-68
2024/01/28 02:34:42;;;;;;;11.53;3.93;;;;;;;;;;5073975;28;20408;-65
2024/01/28 02:37:10;;;;;;;11.80;4.67;;;;;;;;;;5073664;28;20407;-66
2024/01/28 02:39:36;;;;;;;15.10;5.27;;;;;;;;;;5073691;28;20177;-65
2024/01/28 02:42:02;;;;;;;19.63;5.60;;;;;;;;;;5073415;28;20470;-66
2024/01/28 02:44:28;;;;;;;21.93;5.93;;;;;;;;;;5073461;28;20209;-65
2024/01/28 02:46:55;;;;;;;16.13;5.33;;;;;;;;;;5055706;28;20204;-66
2024/01/28 02:49:23;;;;;;;17.83;5.33;;;;;;;;;;5073274;28;20185;-64
2024/01/28 02:51:49;;;;;;;11.93;4.57;;;;;;;;;;5055696;28;20574;-65
2024/01/28 02:54:15;;;;;;;17.57;5.40;;;;;;;;;;5073489;28;20709;-66
2024/01/28 02:56:41;;;;;;;15.50;4.67;;;;;;;;;;5073423;28;20178;-66
2024/01/28 02:59:07;;;;;;;19.37;4.73;;;;;;;;;;5073920;28;20591;-68
2024/01/28 03:01:33;;;;;;;17.53;5.00;;;;;;;;;;5073400;28;20292;-66
2024/01/28 03:03:59;;;;;;;12.40;4.43;;;;;;;;;;5073438;28;20219;-66
2024/01/28 03:06:25;;;;;;;14.93;5.13;;;;;;;;;;5055888;28;20208;-66
2024/01/28 03:08:51;;;;;;;16.17;4.77;;;;;;;;;;5073760;28;20174;-65
2024/01/28 03:11:17;;;;;;;8.93;4.40;;;;;;;;;;5073414;28;20193;-66
2024/01/28 03:13:43;;;;;;;15.33;4.27;;;;;;;;;;5073028;28;20181;-65
2024/01/28 03:16:10;;;;;;;12.13;4.50;;;;;;;;;;5073438;28;20277;-68
2024/01/28 03:18:36;;;;;;;14.17;4.60;;;;;;;;;;5073167;28;20174;-65
2024/01/28 03:21:02;;;;;;;9.90;4.03;;;;;;;;;;5073004;28;20702;-64
2024/01/28 03:23:28;;;;;;;13.83;4.67;;;;;;;;;;5055320;28;20206;-65
2024/01/28 03:25:54;;;;;;;11.07;3.83;;;;;;;;;;5077085;28;20411;-65
2024/01/28 03:28:20;;;;;;;7.20;3.60;;;;;;;;;;5076812;28;20189;-66
2024/01/28 03:30:46;;;;;;;16.10;3.97;;;;;;;;;;5102190;22;20308;-72
2024/01/28 03:33:12;;;;;;;10.50;3.70;;;;;;;;;;5077297;28;20224;-70
2024/01/28 03:35:38;;;;;;;12.43;4.33;;;;;;;;;;5077066;28;20265;-68
2024/01/28 03:38:06;;;;;;;9.80;3.33;;;;;;;;;;5077666;28;20186;-70
2024/01/28 03:40:32;;;;;;;11.27;3.90;;;;;;;;;;5076933;28;20686;-70
2024/01/28 03:42:58;;;;;;;9.70;4.00;;;;;;;;;;5076869;28;20447;-70
2024/01/28 03:45:24;;;;;;;9.87;3.40;;;;;;;;;;5076961;28;20185;-70
2024/01/28 03:47:50;;;;;;;7.57;3.77;;;;;;;;;;5058892;28;20178;-70
2024/01/28 03:50:19;;;;;;;11.47;3.53;;;;;;;;;;5058820;28;20198;-71
2024/01/28 03:52:45;;;;;;;11.77;3.83;;;;;;;;;;5058750;28;20178;-70
2024/01/28 03:55:11;;;;;;;9.33;3.73;;;;;;;;;;5076926;28;20466;-70
2024/01/28 03:57:39;;;;;;;14.40;3.70;;;;;;;;;;5076555;28;20174;-70
2024/01/28 04:00:06;;;;;;;12.83;3.70;;;;;;;;;;5082141;28;20215;-72
2024/01/28 04:02:32;;;;;;;14.10;3.73;;;;;;;;;;5062221;28;20269;-70
2024/01/28 04:04:58;;;;;;;9.23;3.93;;;;;;;;;;5059031;28;20206;-70
2024/01/28 04:07:24;;;;;;;13.47;4.00;;;;;;;;;;5076906;28;20416;-70
2024/01/28 04:09:50;;;;;;;11.67;3.73;;;;;;;;;;5058854;28;20527;-70
2024/01/28 04:12:16;;;;;;;10.77;3.73;;;;;;;;;;5076457;28;20448;-70
2024/01/28 04:14:42;;;;;;;13.23;3.60;;;;;;;;;;5076981;28;20178;-70
2024/01/28 04:17:08;;;;;;;7.80;3.60;;;;;;;;;;5076692;28;20184;-70
2024/01/28 04:19:34;;;;;;;11.40;4.00;;;;;;;;;;5076499;28;20387;-72
2024/01/28 04:22:00;;;;;;;9.00;4.00;;;;;;;;;;5076014;28;20232;-72
2024/01/28 04:24:26;;;;;;;12.33;5.67;;;;;;;;;;5058142;28;20248;-70
2024/01/28 04:26:53;;;;;;;15.50;6.23;;;;;;;;;;5076103;28;20174;-70
2024/01/28 04:29:19;;;;;;;16.10;7.87;;;;;;;;;;5076182;28;20614;-70
2024/01/28 04:31:45;;;;;;;13.33;6.37;;;;;;;;;;5076321;28;20415;-70
2024/01/28 04:34:11;;;;;;;19.67;8.17;;;;;;;;;;5075890;28;20507;-70
2024/01/28 04:36:37;;;;;;;18.57;7.13;;;;;;;;;;5074711;28;20185;-70
2024/01/28 04:39:03;;;;;;;13.73;5.67;;;;;;;;;;5075855;28;20201;-70
2024/01/28 04:41:29;;;;;;;15.57;5.50;;;;;;;;;;5075780;28;20185;-70
2024/01/28 04:43:55;;;;;;;13.20;5.47;;;;;;;;;;5075769;28;20692;-70
2024/01/28 04:46:21;;;;;;;13.27;5.60;;;;;;;;;;5075853;28;20174;-70
2024/01/28 04:48:47;;;;;;;16.07;4.90;;;;;;;;;;5075736;28;20185;-72
2024/01/28 04:51:13;;;;;;;12.97;4.73;;;;;;;;;;5057636;28;20177;-71
2024/01/28 04:53:39;;;;;;;13.33;4.93;;;;;;;;;;5075725;28;20408;-70
2024/01/28 04:56:05;;;;;;;20.23;5.03;;;;;;;;;;5057719;28;20211;-70
2024/01/28 04:58:31;;;;;;;11.77;4.30;;;;;;;;;;5075992;28;20178;-70
2024/01/28 05:00:57;;;;;;;14.00;4.07;;;;;;;;;;5075279;28;20854;-69
2024/01/28 05:03:23;;;;;;;10.90;4.43;;;;;;;;;;5075814;28;20857;-70
2024/01/28 05:05:49;;;;;;;10.53;3.97;;;;;;;;;;5075641;28;20742;-70
2024/01/28 05:08:15;;;;;;;14.30;4.90;;;;;;;;;;5075477;28;20690;-70
2024/01/28 05:10:41;;;;;;;8.97;3.70;;;;;;;;;;5057853;28;20251;-70
2024/01/28 05:13:07;;;;;;;9.70;3.83;;;;;;;;;;5075398;28;20185;-70
2024/01/28 05:15:33;;;;;;;13.60;4.73;;;;;;;;;;5075650;28;20174;-70
2024/01/28 05:17:59;;;;;;;13.03;4.33;;;;;;;;;;5076069;28;20185;-70
2024/01/28 05:20:25;;;;;;;15.27;4.60;;;;;;;;;;5076284;28;20291;-70
2024/01/28 05:22:51;;;;;;;8.63;3.70;;;;;;;;;;5085131;28;20416;-72
2024/01/28 05:25:17;;;;;;;8.00;3.43;;;;;;;;;;5090317;28;20170;-71
2024/01/28 05:27:44;;;;;;;9.87;3.57;;;;;;;;;;5072020;28;20412;-71
2024/01/28 05:30:10;;;;;;;11.23;3.43;;;;;;;;;;5072545;28;20205;-70
2024/01/28 05:32:36;;;;;;;10.30;3.57;;;;;;;;;;5089397;28;20476;-70
2024/01/28 05:35:03;;;;;;;9.20;3.37;;;;;;;;;;5090009;28;20408;-70
2024/01/28 05:37:29;;;;;;;9.07;3.73;;;;;;;;;;5091362;28;20181;-71
2024/01/28 05:39:56;;;;;;;10.73;3.40;;;;;;;;;;5090093;28;20457;-72
2024/01/28 05:42:22;;;;;;;6.57;3.37;;;;;;;;;;5073186;28;20188;-70
2024/01/28 05:44:48;;;;;;;5.53;3.50;;;;;;;;;;5088169;28;20459;-70
2024/01/28 05:47:14;;;;;;;6.93;3.77;;;;;;;;;;5089066;28;20182;-71
2024/01/28 05:49:40;;;;;;;10.10;3.93;;;;;;;;;;5091478;28;20217;-70
2024/01/28 05:52:06;;;;;;;9.90;4.37;;;;;;;;;;5090933;28;20170;-70
2024/01/28 05:54:33;;;;;;;10.57;4.00;;;;;;;;;;5091917;28;20242;-70
2024/01/28 05:57:00;;;;;;;13.07;4.40;;;;;;;;;;5091368;28;20415;-70
2024/01/28 05:59:26;;;;;;;8.37;4.60;;;;;;;;;;5091471;28;20459;-73
2024/01/28 06:01:51;;;;;;;16.53;6.23;;;;;;;;;;5091686;28;20408;-70
2024/01/28 06:04:17;;;;;;;11.87;5.83;;;;;;;;;;5074235;28;20205;-70
2024/01/28 06:06:43;;;;;;;18.57;6.27;;;;;;;;;;5092439;28;20174;-70
2024/01/28 06:09:10;;;;;;;11.20;5.10;;;;;;;;;;5092237;28;20194;-70
2024/01/28 06:11:36;;;;;;;12.07;5.40;;;;;;;;;;5074599;28;20174;-70
2024/01/28 06:14:02;;;;;;;19.43;6.43;;;;;;;;;;5075324;28;20419;-70
2024/01/28 06:16:29;;;;;;;14.87;6.10;;;;;;;;;;5091594;28;20185;-68
2024/01/28 06:18:56;;;;;;;16.27;5.60;;;;;;;;;;5067533;28;20467;-68
2024/01/28 06:21:22;;;;;;;13.07;6.00;;;;;;;;;;5072548;28;20420;-69
2024/01/28 06:23:48;;;;;;;14.07;5.50;;;;;;;;;;5072944;28;20452;-68
2024/01/28 06:26:16;;;;;;;12.07;5.47;;;;;;;;;;5072416;28;20549;-68
2024/01/28 06:28:42;;;;;;;13.90;5.70;;;;;;;;;;5090775;28;20432;-69
2024/01/28 06:31:08;;;;;;;12.40;6.23;;;;;;;;;;5090950;28;20429;-68
2024/01/28 06:33:35;;;;;;;13.43;6.20;;;;;;;;;;5092102;28;20403;-68
2024/01/28 06:36:01;;;;;;;12.07;5.17;;;;;;;;;;5074527;28;20396;-68
2024/01/28 06:38:27;;;;;;;15.17;4.90;;;;;;;;;;5091000;28;20400;-69
2024/01/28 06:40:55;;;;;;;17.70;7.77;;;;;;;;;;5073254;28;20432;-69
2024/01/28 06:43:22;;;;;;;17.30;6.67;;;;;;;;;;5074484;28;20541;-68
2024/01/28 06:45:48;;;;;;;12.60;5.80;;;;;;;;;;5093202;28;20413;-68
2024/01/28 06:48:14;;;;;;;17.13;7.80;;;;;;;;;;5092286;28;20420;-69
2024/01/28 06:50:41;;;;;;;20.20;9.47;;;;;;;;;;5092550;28;20428;-68
2024/01/28 06:53:06;;;;;;;33.57;14.70;;;;;;;;;;5073904;28;20182;-69
2024/01/28 06:55:32;;;;;;;27.67;10.97;;;;;;;;;;5074145;28;20420;-68
2024/01/28 06:58:00;;;;;;;56.83;23.37;;;;;;;;;;5093753;28;20613;-68
2024/01/28 07:00:26;;;;;;;15.07;6.90;;;;;;;;;;5079715;28;20288;-68
2024/01/28 07:02:53;;;;;;;46.60;19.70;;;;;;;;;;5097443;28;20404;-70
2024/01/28 07:05:20;;;;;;;31.50;14.77;;;;;;;;;;5097920;28;20166;-69
2024/01/28 07:07:46;;;;;;;52.43;20.43;;;;;;;;;;5097300;28;20397;-68
2024/01/28 07:10:12;;;;;;;21.83;9.30;;;;;;;;;;5081156;28;20427;-68
2024/01/28 07:12:39;;;;;;;19.70;6.50;;;;;;;;;;5097912;28;20174;-69
2024/01/28 07:15:05;;;;;;;16.43;5.47;;;;;;;;;;5078734;28;20452;-68
2024/01/28 07:17:31;;;;;;;19.63;7.47;;;;;;;;;;5079950;28;20419;-69
2024/01/28 07:19:58;;;;;;;28.60;13.13;;;;;;;;;;5079837;28;20444;-69
2024/01/28 07:22:24;;;;;;;16.97;6.43;;;;;;;;;;5080069;28;20181;-69
2024/01/28 07:24:50;;;;;;;17.80;6.67;;;;;;;;;;5097959;28;20264;-68
2024/01/28 07:27:16;;;;;;;18.87;6.50;;;;;;;;;;5079830;28;20237;-69
2024/01/28 07:29:43;;;;;;;17.40;7.77;;;;;;;;;;5096451;28;20277;-67
2024/01/28 07:32:13;;;;;;;13.50;4.70;;;;;;;;;;5096475;28;20178;-68
2024/01/28 07:34:39;;;;;;;31.63;11.40;;;;;;;;;;5097596;28;20399;-68
2024/01/28 07:37:05;;;;;;;28.70;13.73;;;;;;;;;;5078873;28;20426;-68
2024/01/28 07:39:31;;;;;;;20.40;11.90;;;;;;;;;;5079256;28;20432;-68
2024/01/28 07:41:58;;;;;;;16.77;6.33;;;;;;;;;;5097639;28;20168;-68
2024/01/28 07:44:24;;;;;;;15.03;5.90;;;;;;;;;;5096276;28;20193;-68
2024/01/28 07:46:52;;;;;;;9.30;3.27;;;;;;;;;;5097122;28;20416;-68
2024/01/28 07:49:18;;;;;;;7.70;3.47;;;;;;;;;;5078455;28;20436;-68
2024/01/28 07:51:44;;;;;;;8.00;3.57;;;;;;;;;;5080000;28;20458;-68
2024/01/28 07:54:10;;;;;;;6.30;3.30;;;;;;;;;;5095729;28;20543;-68
2024/01/28 07:56:36;;;;;;;12.07;3.07;;;;;;;;;;5099395;28;20182;-69
2024/01/28 07:59:02;;;;;;;78.27;26.57;;;;;;;;;;5096723;28;20178;-68
2024/01/28 08:01:30;;;;;;;9.60;4.10;;;;;;;;;;5099639;28;20199;-68
2024/01/28 08:03:56;;;;;;;11.63;4.33;;;;;;;;;;5091332;28;20206;-68
2024/01/28 08:06:22;;;;;;;8.30;3.33;;;;;;;;;;5062575;28;20608;-68
2024/01/28 08:08:48;;;;;;;3.23;1.97;;;;;;;;;;5061704;28;20177;-68
2024/01/28 08:11:14;;;;;;;6.17;2.30;;;;;;;;;;5078418;28;20552;-68
2024/01/28 08:13:43;;;;;;;7.90;3.20;;;;;;;;;;5078742;28;20174;-68
2024/01/28 08:16:09;;;;;;;8.80;2.67;;;;;;;;;;5059965;28;20266;-68
2024/01/28 08:18:35;;;;;;;9.57;2.63;;;;;;;;;;5059106;28;20181;-68
2024/01/28 08:21:01;;;;;;;5.50;2.13;;;;;;;;;;5077242;28;20197;-68
2024/01/28 08:23:28;;;;;;;8.37;2.73;;;;;;;;;;5076832;28;20208;-68
2024/01/28 08:25:54;;;;;;;5.80;2.57;;;;;;;;;;5058978;28;20178;-68
2024/01/28 08:28:21;;;;;;;10.20;3.37;;;;;;;;;;5076452;28;20180;-69
2024/01/28 08:30:47;;;;;;;7.47;2.70;;;;;;;;;;5075790;28;20209;-68
2024/01/28 08:33:13;;;;;;;13.10;3.43;;;;;;;;;;5076079;28;20185;-68
2024/01/28 08:35:39;;;;;;;5.37;2.30;;;;;;;;;;5061011;28;20181;-69
2024/01/28 08:38:06;;;;;;;9.40;2.50;;;;;;;;;;5077049;28;20232;-68
2024/01/28 08:40:32;;;;;;;7.17;2.77;;;;;;;;;;5076493;28;20204;-68
2024/01/28 08:42:58;;;;;;;7.63;2.70;;;;;;;;;;5075958;28;20177;-67
2024/01/28 08:45:24;;;;;;;9.37;2.97;;;;;;;;;;5058971;28;20231;-68
2024/01/28 08:47:53;;;;;;;8.77;2.57;;;;;;;;;;5059900;28;20190;-68
2024/01/28 08:50:19;;;;;;;4.93;2.47;;;;;;;;;;5058802;28;20676;-68
2024/01/28 08:52:45;;;;;;;7.20;2.90;;;;;;;;;;5060104;28;20205;-68
2024/01/28 08:55:11;;;;;;;13.23;7.20;;;;;;;;;;5076336;28;20200;-69
2024/01/28 08:57:37;;;;;;;21.50;11.13;;;;;;;;;;5058544;28;20652;-68
2024/01/28 09:00:05;;;;;;;60.97;34.13;;;;;;;;;;5058071;28;20194;-68
2024/01/28 09:02:35;;;;;;;51.57;27.90;;;;;;;;;;5076187;28;20178;-68
2024/01/28 09:05:01;;;;;;;14.00;7.27;;;;;;;;;;5063743;28;20206;-68
2024/01/28 09:07:28;;;;;;;16.30;8.57;;;;;;;;;;5081336;28;20182;-68
2024/01/28 09:09:54;;;;;;;12.13;7.47;;;;;;;;;;5058769;28;20204;-68
2024/01/28 09:12:20;;;;;;;14.67;9.17;;;;;;;;;;5076742;28;20182;-68
2024/01/28 09:14:46;;;;;;;7.20;4.57;;;;;;;;;;5062561;28;20185;-68
2024/01/28 09:17:12;;;;;;;7.80;3.47;;;;;;;;;;5076735;28;20178;-68
2024/01/28 09:19:38;;;;;;;6.87;3.70;;;;;;;;;;5075374;28;20326;-67
2024/01/28 09:22:05;;;;;;;8.50;4.60;;;;;;;;;;5076214;28;20213;-68
2024/01/28 09:24:31;;;;;;;6.17;3.87;;;;;;;;;;5059048;28;20585;-68
2024/01/28 09:26:58;;;;;;;3.70;2.73;;;;;;;;;;5076503;28;20170;-68
2024/01/28 09:29:25;;;;;;;57.37;31.53;;;;;;;;;;5076749;28;20687;-68
2024/01/28 09:31:52;;;;;;;8.83;4.77;;;;;;;;;;5077652;28;20166;-68
2024/01/28 09:34:18;;;;;;;8.70;5.07;;;;;;;;;;5057904;28;20562;-68
2024/01/28 09:36:44;;;;;;;20.60;13.50;;;;;;;;;;5075457;28;20553;-68
2024/01/28 09:39:11;;;;;;;27.20;15.47;;;;;;;;;;5075050;28;20693;-68
2024/01/28 09:41:37;;;;;;;18.60;11.80;;;;;;;;;;5057017;28;20268;-68
2024/01/28 09:44:04;;;;;;;25.43;19.07;;;;;;;;;;5075568;28;20197;-68
2024/01/28 09:46:30;;;;;;;9.37;5.10;;;;;;;;;;5074814;28;20225;-70
2024/01/28 09:48:57;;;;;;;8.20;4.40;;;;;;;;;;5075013;28;20181;-69
2024/01/28 09:51:23;;;;;;;6.37;3.30;;;;;;;;;;5057404;28;20177;-68
2024/01/28 09:53:49;;;;;;;5.27;3.13;;;;;;;;;;5057416;28;20204;-70
2024/01/28 09:56:16;;;;;;;6.33;3.10;;;;;;;;;;5057430;28;20581;-68
2024/01/28 09:58:43;;;;;;;8.13;3.10;;;;;;;;;;5100139;22;20236;-66
2024/01/28 10:01:10;;;;;;;7.03;2.57;;;;;;;;;;5075282;28;20182;-67
2024/01/28 10:03:36;;;;;;;5.50;2.47;;;;;;;;;;5075139;28;20224;-68
2024/01/28 10:06:04;;;;;;;6.97;3.60;;;;;;;;;;5075518;28;20620;-66
2024/01/28 10:08:30;;;;;;;12.97;9.70;;;;;;;;;;5057232;28;20194;-67
2024/01/28 10:10:57;;;;;;;4.57;2.20;;;;;;;;;;5057916;28;20181;-65
2024/01/28 10:13:23;;;;;;;6.37;3.77;;;;;;;;;;5075130;28;20193;-67
2024/01/28 10:15:58;;;;;;;3.07;2.07;;;;;;;;;;5057568;28;20178;-68
2024/01/28 10:18:25;;;;;;;8.43;4.37;;;;;;;;;;5075308;28;20675;-67
2024/01/28 10:20:51;;;;;;;6.77;2.90;;;;;;;;;;5074833;28;20227;-65
2024/01/28 10:23:17;;;;;;;9.77;4.10;;;;;;;;;;5056694;28;20229;-68
2024/01/28 10:25:46;;;;;;;4.87;2.43;;;;;;;;;;5075234;28;20177;-69
2024/01/28 10:28:12;;;;;;;5.77;2.90;;;;;;;;;;5075401;28;20205;-68
2024/01/28 10:30:39;;;;;;;16.50;9.03;;;;;;;;;;5056814;28;20178;-65
2024/01/28 10:33:05;;;;;;;9.27;3.97;;;;;;;;;;5056261;28;20253;-66
2024/01/28 10:35:31;;;;;;;6.57;3.97;;;;;;;;;;5073876;28;20594;-66
2024/01/28 10:37:59;;;;;;;5.77;2.80;;;;;;;;;;5073942;28;20598;-66
2024/01/28 10:40:30;;;;;;;5.57;4.10;;;;;;;;;;5074192;28;20180;-66
2024/01/28 10:42:56;;;;;;;6.73;3.30;;;;;;;;;;5073922;28;20161;-69
2024/01/28 10:45:23;;;;;;;7.17;3.30;;;;;;;;;;5073959;28;20253;-66
2024/01/28 10:47:53;;;;;;;5.60;2.90;;;;;;;;;;5074181;28;20205;-67
2024/01/28 10:50:20;;;;;;;8.30;3.33;;;;;;;;;;5056715;28;20288;-66
2024/01/28 10:52:47;;;;;;;7.93;4.87;;;;;;;;;;5073952;28;20542;-67
2024/01/28 10:55:14;;;;;;;7.80;4.10;;;;;;;;;;5073769;28;20173;-66
2024/01/28 10:57:40;;;;;;;4.30;2.77;;;;;;;;;;5055336;28;20722;-68
2024/01/28 11:00:06;;;;;;;5.60;3.43;;;;;;;;;;5073644;28;20184;-66
2024/01/28 11:02:34;;;;;;;6.50;2.57;;;;;;;;;;5074295;28;20198;-66
2024/01/28 11:05:00;;;;;;;6.77;4.20;;;;;;;;;;5074057;28;20202;-67
2024/01/28 11:07:28;;;;;;;4.83;2.97;;;;;;;;;;5055435;28;20263;-66
2024/01/28 11:09:54;;;;;;;6.97;2.80;;;;;;;;;;5054845;28;20652;-65
2024/01/28 11:12:20;;;;;;;7.03;4.07;;;;;;;;;;5054478;28;20197;-68
2024/01/28 11:14:47;;;;;;;10.07;4.50;;;;;;;;;;5073050;28;20184;-66
2024/01/28 11:17:14;;;;;;;14.70;9.43;;;;;;;;;;5072096;28;20202;-67
2024/01/28 11:19:39;;;;;;;8.63;5.20;;;;;;;;;;5054247;28;20196;-68
2024/01/28 11:22:12;;;;;;;7.73;3.77;;;;;;;;;;5072291;28;20264;-67
2024/01/28 11:24:48;;;;;;;8.03;4.73;;;;;;;;;;5054246;28;20290;-68
2024/01/28 11:27:15;;;;;;;30.87;10.67;;;;;;;;;;5054375;28;20258;-67
2024/01/28 11:29:41;;;;;;;96.63;59.23;;;;;;;;;;5072561;28;20253;-68
2024/01/28 11:32:07;;;;;;;75.97;48.57;;;;;;;;;;5054105;28;20184;-68
2024/01/28 11:34:33;;;;;;;17.63;8.17;;;;;;;;;;5072590;28;20691;-67
2024/01/28 11:37:00;;;;;;;9.97;4.40;;;;;;;;;;5054064;28;20659;-66
2024/01/28 11:39:35;;;;;;;28.77;17.57;;;;;;;;;;5072119;28;20671;-66
2024/01/28 11:42:01;;;;;;;10.70;5.80;;;;;;;;;;5072194;28;20197;-66
2024/01/28 11:44:27;;;;;;;7.83;3.60;;;;;;;;;;5072012;28;20210;-66
2024/01/28 11:46:53;;;;;;;7.90;4.37;;;;;;;;;;5057159;28;20181;-67
2024/01/28 11:49:20;;;;;;;12.93;3.63;;;;;;;;;;5075438;28;20553;-67
2024/01/28 11:51:45;;;;;;;8.83;4.57;;;;;;;;;;5075727;28;20202;-67
2024/01/28 11:54:11;;;;;;;10.13;4.83;;;;;;;;;;5075484;28;20640;-67
2024/01/28 11:56:39;;;;;;;7.30;3.90;;;;;;;;;;5057310;28;20639;-65
2024/01/28 11:59:06;;;;;;;5.47;3.60;;;;;;;;;;5057410;28;20216;-68
2024/01/28 12:01:32;;;;;;;14.87;6.27;;;;;;;;;;5076055;28;20248;-68
2024/01/28 12:03:58;;;;;;;10.80;7.43;;;;;;;;;;5057706;28;20642;-67
2024/01/28 12:06:25;;;;;;;2.83;2.53;;;;;;;;;;5075310;28;20198;-66
2024/01/28 12:08:54;;;;;;;7.47;3.93;;;;;;;;;;5057052;28;20193;-66
2024/01/28 12:11:29;;;;;;;11.90;5.97;;;;;;;;;;5056970;28;20256;-66
2024/01/28 12:13:55;;;;;;;9.60;8.47;;;;;;;;;;5074938;28;20677;-67
2024/01/28 12:16:22;;;;;;;7.27;5.30;;;;;;;;;;5075670;28;20321;-67
2024/01/28 12:18:48;;;;;;;4.10;3.40;;;;;;;;;;5074833;28;20689;-66
2024/01/28 12:21:18;;;;;;;17.00;12.37;;;;;;;;;;5056785;28;20513;-66
2024/01/28 12:23:48;;;;;;;5.97;3.30;;;;;;;;;;5074763;28;20271;-67
2024/01/28 12:26:15;;;;;;;5.27;3.33;;;;;;;;;;5074965;28;20544;-66
2024/01/28 12:28:41;;;;;;;5.53;2.63;;;;;;;;;;5056657;28;20225;-66
2024/01/28 12:31:09;;;;;;;10.30;4.67;;;;;;;;;;5075013;28;20592;-66
2024/01/28 12:33:35;;;;;;;6.43;3.90;;;;;;;;;;5056695;28;20594;-67
2024/01/28 12:36:01;;;;;;;6.87;4.93;;;;;;;;;;5074451;28;20260;-66
2024/01/28 12:38:27;;;;;;;5.77;4.33;;;;;;;;;;5074390;28;20235;-67
2024/01/28 12:40:53;;;;;;;4.63;2.30;;;;;;;;;;5074588;28;20177;-67
2024/01/28 12:43:19;;;;;;;5.63;3.47;;;;;;;;;;5074537;28;20206;-66
2024/01/28 12:45:45;;;;;;;8.23;5.47;;;;;;;;;;5056488;28;20306;-68
2024/01/28 12:48:11;;;;;;;11.87;7.17;;;;;;;;;;5056419;28;20529;-67
2024/01/28 12:50:37;;;;;;;10.10;3.97;;;;;;;;;;5074482;28;20170;-66
2024/01/28 12:53:04;;;;;;;7.03;4.27;;;;;;;;;;5074289;28;20202;-67
2024/01/28 12:55:30;;;;;;;4.77;3.57;;;;;;;;;;5074327;28;20296;-67
2024/01/28 12:57:56;;;;;;;7.93;4.17;;;;;;;;;;5073290;28;20241;-66
2024/01/28 13:00:22;;;;;;;4.97;3.10;;;;;;;;;;5074248;28;20174;-66
2024/01/28 13:02:48;;;;;;;6.87;2.87;;;;;;;;;;5074815;28;20221;-66
2024/01/28 13:05:15;;;;;;;7.27;2.80;;;;;;;;;;5074245;28;20737;-66
2024/01/28 13:07:41;;;;;;;7.03;3.90;;;;;;;;;;5074070;28;20760;-66
2024/01/28 13:10:09;;;;;;;5.27;2.90;;;;;;;;;;5055964;28;20178;-66
2024/01/28 13:12:38;;;;;;;5.73;3.17;;;;;;;;;;5073909;28;20170;-65
2024/01/28 13:15:07;;;;;;;7.40;3.20;;;;;;;;;;5075071;28;20177;-66
2024/01/28 13:17:33;;;;;;;5.63;2.47;;;;;;;;;;5074548;28;20197;-66
2024/01/28 13:19:59;;;;;;;4.77;2.90;;;;;;;;;;5075329;28;20322;-65
2024/01/28 13:22:25;;;;;;;5.83;2.70;;;;;;;;;;5075648;28;20221;-66
2024/01/28 13:24:52;;;;;;;6.93;2.97;;;;;;;;;;5074187;28;20198;-65
2024/01/28 13:27:19;;;;;;;12.20;9.30;;;;;;;;;;5073923;28;20295;-65
2024/01/28 13:29:44;;;;;;;9.17;5.97;;;;;;;;;;5055485;28;20270;-65
2024/01/28 13:32:11;;;;;;;9.00;6.23;;;;;;;;;;5055510;28;20643;-64
2024/01/28 13:34:37;;;;;;;10.23;6.93;;;;;;;;;;5073449;28;20213;-65
2024/01/28 13:37:03;;;;;;;6.77;4.13;;;;;;;;;;5073801;28;20279;-66
2024/01/28 13:39:29;;;;;;;3.40;2.73;;;;;;;;;;5073127;28;20205;-66
2024/01/28 13:41:55;;;;;;;7.27;5.43;;;;;;;;;;5055094;28;20325;-66
2024/01/28 13:44:21;;;;;;;5.53;2.47;;;;;;;;;;5074095;28;20319;-66
2024/01/28 13:46:47;;;;;;;4.40;2.30;;;;;;;;;;5073573;28;20174;-66
2024/01/28 13:49:13;;;;;;;4.60;3.97;;;;;;;;;;5073135;28;20174;-67
2024/01/28 13:51:39;;;;;;;5.10;3.30;;;;;;;;;;5072813;28;20166;-66
2024/01/28 13:54:05;;;;;;;9.13;5.80;;;;;;;;;;5072914;28;20264;-65
2024/01/28 13:56:31;;;;;;;5.73;3.23;;;;;;;;;;5073195;28;20203;-65
2024/01/28 13:58:58;;;;;;;4.50;3.47;;;;;;;;;;5072944;28;20274;-65
2024/01/28 14:01:25;;;;;;;5.80;2.57;;;;;;;;;;5055050;28;20644;-65
2024/01/28 14:03:51;;;;;;;4.23;3.10;;;;;;;;;;5072736;28;20250;-65
2024/01/28 14:06:18;;;;;;;5.93;4.37;;;;;;;;;;5072698;28;20228;-65
2024/01/28 14:08:44;;;;;;;8.00;6.67;;;;;;;;;;5054445;28;20198;-65
2024/01/28 14:11:12;;;;;;;9.10;6.60;;;;;;;;;;5072533;28;20174;-65
2024/01/28 14:13:38;;;;;;;13.77;10.30;;;;;;;;;;5072894;28;20174;-65
2024/01/28 14:16:04;;;;;;;9.67;5.43;;;;;;;;;;5054728;28;20173;-65
2024/01/28 14:18:30;;;;;;;10.30;5.00;;;;;;;;;;5072297;28;20225;-65
2024/01/28 14:20:56;;;;;;;6.37;3.63;;;;;;;;;;5072728;28;20626;-65
2024/01/28 14:23:22;;;;;;;15.00;5.93;;;;;;;;;;5072307;28;20201;-65
2024/01/28 14:25:49;;;;;;;15.20;7.37;;;;;;;;;;5072335;28;20662;-65
2024/01/28 14:28:15;;;;;;;8.80;6.77;;;;;;;;;;5054135;28;20197;-66